Putney, VT

8:23 AM EDT on March 31, 2015 (GMT -0400)
Orange Municipal | | Change Station
CLOSE
Current Station
Airport
Location: Orange,
Elevation: 554 ft
Nearby Weather Stations

Elev 554 ft 42.57 °N, 72.29 °W | Updated 31 minutes ago

Overcast
Overcast
37 °F
Feels Like 30 °F
N
9
Wind Variable Wind from West

Today
High -- | Low -- °F
--% Chance of Precip.
Yesterday
High -- | Low -- °F
Precip. -- in
6:34 AM 7:14 PM
Waxing Gibbous, 86% visible
Pressure 29.77 in
Visibility 10.0 miles
Clouds Clear
Windchill 30 °F
Dew Point 25 °F
Humidity 62%
Rainfall 0.00 in
Snow Depth Not available.
UV 1 out of 12
Pollen 4.90 out of 12
Air Quality Not available.
Flu Activity Not available.
METAR KORE 311152Z AUTO 27008KT 10SM CLR 03/M04 A2975 RMK AO2 SLP079 T00281039 10028 20011 51012

More Conditions Fewer Conditions

Pressure 29.77 in
Visibility 10.0 miles
Clouds Clear
Windchill 30 °F
Dew Point 25 °F
Humidity 62%
Rainfall 0.00 in
Snow Depth Not available.
UV 1 out of 12
Pollen 4.90 out of 12
Air Quality Not available.
Flu Activity Not available.
METAR KORE 311152Z AUTO 27008KT 10SM CLR 03/M04 A2975 RMK AO2 SLP079 T00281039 10028 20011 51012

More Conditions Fewer Conditions

10-Day Weather Forecast

Almanac

Astronomy

Mar. 31, 2015 Rise Set
Actual Time
Civil Twilight
Nautical Twilight
Astronomical Twilight
Moon
Length of Visible Light
Length of Day
Tomorrow will be .
, % of the Moon is Illuminated

Today's Extremes

State Highs State Lows

Community

WunderPhotos

Upload Photos

1,809,753 photos uploaded!

WunderBlogs® & News

Nearby

Air Quality

  Air Quality AQ Index Pollutant
Not available.

Snow Depth

Station Depth Elevation

Earthquake Activity

City Distance Mag. Time & Date
Minimum magnitude displayed is 2.5.

Coastal Water Temperatures

Place Temperature

Stations

Nearby Weather Stations

Station Location Temp. Windchill Dew Point Humidity Wind Precip. Elev Updated Type